Terminal Aerodrome Forecast
Issued by NWS

Home | Current Version | Previous Version | Text Only | Print | Product List | Glossary On
Versions: 1 2 3 4 5 6 7 8 9 10 11 12 13 14 15 16
000
FTUS46 KSEW 231721
TAFPAE
TAF
KPAE 231721Z 2318/2418 14009KT P6SM BKN025 OVC045
     FM232000 18012KT P6SM -RA SCT025 OVC045
     FM232300 18012KT P6SM -SHRA BKN025 OVC040
     FM240800 17008KT P6SM VCSH SCT025 OVC045
     FM241500 04003KT P6SM BKN050 BKN100=

USA.gov is the U.S. government's official web portal to all federal, state and local government web resources and services.